sensor_id;sensor_type;location;lat;lon;timestamp;P1;durP1;ratioP1;P2;durP2;ratioP2
41897;SDS011;27576;53.366;-1.498;2022-12-07T00:00:25;6.55;;;2.78;;
41897;SDS011;27576;53.366;-1.498;2022-12-07T00:02:51;6.47;;;2.65;;
41897;SDS011;27576;53.366;-1.498;2022-12-07T00:05:16;7.68;;;3.17;;
41897;SDS011;27576;53.366;-1.498;2022-12-07T00:07:41;8.93;;;2.67;;
41897;SDS011;27576;53.366;-1.498;2022-12-07T00:10:07;5.47;;;2.70;;
41897;SDS011;27576;53.366;-1.498;2022-12-07T00:12:32;7.72;;;2.75;;
41897;SDS011;27576;53.366;-1.498;2022-12-07T00:14:58;11.90;;;2.50;;
41897;SDS011;27576;53.366;-1.498;2022-12-07T00:17:23;10.70;;;2.67;;
41897;SDS011;27576;53.366;-1.498;2022-12-07T00:19:49;5.40;;;2.92;;
41897;SDS011;27576;53.366;-1.498;2022-12-07T00:22:14;8.60;;;2.65;;
41897;SDS011;27576;53.366;-1.498;2022-12-07T00:24:39;10.57;;;3.08;;
41897;SDS011;27576;53.366;-1.498;2022-12-07T00:27:05;7.32;;;2.47;;
41897;SDS011;27576;53.366;-1.498;2022-12-07T00:29:30;7.60;;;2.83;;
41897;SDS011;27576;53.366;-1.498;2022-12-07T00:31:55;8.35;;;3.08;;
41897;SDS011;27576;53.366;-1.498;2022-12-07T00:34:21;6.45;;;2.58;;
41897;SDS011;27576;53.366;-1.498;2022-12-07T00:36:47;7.63;;;2.65;;
41897;SDS011;27576;53.366;-1.498;2022-12-07T00:39:13;9.25;;;3.80;;
41897;SDS011;27576;53.366;-1.498;2022-12-07T00:41:38;6.88;;;3.22;;
41897;SDS011;27576;53.366;-1.498;2022-12-07T00:44:04;8.45;;;3.50;;
41897;SDS011;27576;53.366;-1.498;2022-12-07T00:46:29;8.02;;;2.90;;
41897;SDS011;27576;53.366;-1.498;2022-12-07T00:48:55;7.65;;;2.78;;
41897;SDS011;27576;53.366;-1.498;2022-12-07T00:51:22;8.85;;;3.13;;
41897;SDS011;27576;53.366;-1.498;2022-12-07T00:53:49;6.32;;;2.47;;
41897;SDS011;27576;53.366;-1.498;2022-12-07T00:56:15;10.25;;;2.45;;
41897;SDS011;27576;53.366;-1.498;2022-12-07T00:58:43;12.10;;;2.78;;
41897;SDS011;27576;53.366;-1.498;2022-12-07T01:01:09;8.40;;;2.70;;
41897;SDS011;27576;53.366;-1.498;2022-12-07T01:03:36;5.70;;;2.88;;
41897;SDS011;27576;53.366;-1.498;2022-12-07T01:06:02;8.48;;;3.53;;
41897;SDS011;27576;53.366;-1.498;2022-12-07T01:08:28;7.78;;;3.05;;
41897;SDS011;27576;53.366;-1.498;2022-12-07T01:11:01;7.22;;;3.13;;
41897;SDS011;27576;53.366;-1.498;2022-12-07T01:13:29;9.63;;;3.13;;
41897;SDS011;27576;53.366;-1.498;2022-12-07T01:15:59;6.07;;;2.42;;
41897;SDS011;27576;53.366;-1.498;2022-12-07T01:18:26;6.68;;;2.72;;
41897;SDS011;27576;53.366;-1.498;2022-12-07T01:21:12;9.38;;;3.33;;
41897;SDS011;27576;53.366;-1.498;2022-12-07T01:23:40;8.63;;;2.55;;
41897;SDS011;27576;53.366;-1.498;2022-12-07T01:26:07;6.10;;;2.33;;
41897;SDS011;27576;53.366;-1.498;2022-12-07T01:28:34;7.18;;;2.28;;
41897;SDS011;27576;53.366;-1.498;2022-12-07T01:31:13;6.47;;;2.25;;
41897;SDS011;27576;53.366;-1.498;2022-12-07T01:33:42;6.70;;;2.03;;
41897;SDS011;27576;53.366;-1.498;2022-12-07T01:36:25;13.85;;;2.58;;
41897;SDS011;27576;53.366;-1.498;2022-12-07T01:39:01;8.93;;;2.72;;
41897;SDS011;27576;53.366;-1.498;2022-12-07T01:41:32;6.50;;;2.05;;
41897;SDS011;27576;53.366;-1.498;2022-12-07T01:46:41;12.40;;;2.95;;
41897;SDS011;27576;53.366;-1.498;2022-12-07T01:49:29;6.43;;;2.42;;
41897;SDS011;27576;53.366;-1.498;2022-12-07T01:51:56;8.10;;;2.38;;
41897;SDS011;27576;53.366;-1.498;2022-12-07T01:54:26;3.28;;;2.00;;
41897;SDS011;27576;53.366;-1.498;2022-12-07T01:56:53;8.13;;;2.75;;
41897;SDS011;27576;53.366;-1.498;2022-12-07T01:59:22;5.87;;;2.20;;
41897;SDS011;27576;53.366;-1.498;2022-12-07T02:01:50;4.87;;;2.03;;
41897;SDS011;27576;53.366;-1.498;2022-12-07T02:04:17;7.82;;;2.40;;
41897;SDS011;27576;53.366;-1.498;2022-12-07T02:06:43;7.50;;;2.17;;
41897;SDS011;27576;53.366;-1.498;2022-12-07T02:09:10;4.43;;;2.03;;
41897;SDS011;27576;53.366;-1.498;2022-12-07T02:11:36;11.23;;;2.53;;
41897;SDS011;27576;53.366;-1.498;2022-12-07T02:14:01;5.30;;;2.13;;
41897;SDS011;27576;53.366;-1.498;2022-12-07T02:21:58;5.07;;;2.43;;
41897;SDS011;27576;53.366;-1.498;2022-12-07T02:24:49;4.83;;;2.53;;
41897;SDS011;27576;53.366;-1.498;2022-12-07T02:30:05;8.47;;;2.30;;
41897;SDS011;27576;53.366;-1.498;2022-12-07T02:35:18;10.33;;;2.20;;
41897;SDS011;27576;53.366;-1.498;2022-12-07T02:38:02;5.87;;;2.17;;
41897;SDS011;27576;53.366;-1.498;2022-12-07T02:40:53;6.35;;;2.20;;
41897;SDS011;27576;53.366;-1.498;2022-12-07T02:43:29;7.63;;;2.25;;
41897;SDS011;27576;53.366;-1.498;2022-12-07T02:45:56;6.85;;;2.28;;
41897;SDS011;27576;53.366;-1.498;2022-12-07T02:48:26;7.97;;;2.67;;
41897;SDS011;27576;53.366;-1.498;2022-12-07T02:50:55;8.77;;;2.35;;
41897;SDS011;27576;53.366;-1.498;2022-12-07T02:55:54;6.35;;;2.55;;
41897;SDS011;27576;53.366;-1.498;2022-12-07T02:58:23;6.57;;;2.35;;
41897;SDS011;27576;53.366;-1.498;2022-12-07T03:07:06;6.18;;;2.25;;
41897;SDS011;27576;53.366;-1.498;2022-12-07T03:12:20;4.63;;;1.93;;
41897;SDS011;27576;53.366;-1.498;2022-12-07T03:14:55;5.40;;;2.00;;
41897;SDS011;27576;53.366;-1.498;2022-12-07T03:17:30;6.37;;;1.73;;
41897;SDS011;27576;53.366;-1.498;2022-12-07T03:20:00;5.17;;;2.10;;
41897;SDS011;27576;53.366;-1.498;2022-12-07T03:22:31;5.20;;;2.10;;
41897;SDS011;27576;53.366;-1.498;2022-12-07T03:25:00;2.40;;;1.33;;
41897;SDS011;27576;53.366;-1.498;2022-12-07T03:27:34;4.63;;;2.10;;
41897;SDS011;27576;53.366;-1.498;2022-12-07T03:30:07;5.45;;;1.80;;
41897;SDS011;27576;53.366;-1.498;2022-12-07T03:32:38;6.70;;;2.20;;
41897;SDS011;27576;53.366;-1.498;2022-12-07T03:35:13;4.57;;;2.05;;
41897;SDS011;27576;53.366;-1.498;2022-12-07T03:37:47;4.97;;;1.70;;
41897;SDS011;27576;53.366;-1.498;2022-12-07T03:42:41;6.35;;;2.28;;
41897;SDS011;27576;53.366;-1.498;2022-12-07T03:45:07;5.00;;;2.00;;
41897;SDS011;27576;53.366;-1.498;2022-12-07T03:47:47;8.53;;;2.43;;
41897;SDS011;27576;53.366;-1.498;2022-12-07T03:50:31;3.43;;;1.60;;
41897;SDS011;27576;53.366;-1.498;2022-12-07T03:55:57;4.77;;;2.07;;
41897;SDS011;27576;53.366;-1.498;2022-12-07T03:58:23;6.53;;;1.73;;
41897;SDS011;27576;53.366;-1.498;2022-12-07T04:00:50;8.10;;;2.10;;
41897;SDS011;27576;53.366;-1.498;2022-12-07T04:03:16;7.73;;;1.97;;
41897;SDS011;27576;53.366;-1.498;2022-12-07T04:05:42;4.63;;;1.83;;
41897;SDS011;27576;53.366;-1.498;2022-12-07T04:08:08;8.67;;;1.90;;
41897;SDS011;27576;53.366;-1.498;2022-12-07T04:10:33;4.63;;;1.60;;
41897;SDS011;27576;53.366;-1.498;2022-12-07T04:12:59;7.40;;;2.60;;
41897;SDS011;27576;53.366;-1.498;2022-12-07T04:15:24;3.57;;;1.83;;
41897;SDS011;27576;53.366;-1.498;2022-12-07T04:17:50;3.67;;;2.20;;
41897;SDS011;27576;53.366;-1.498;2022-12-07T04:20:15;4.63;;;1.97;;
41897;SDS011;27576;53.366;-1.498;2022-12-07T04:22:41;8.67;;;2.33;;
41897;SDS011;27576;53.366;-1.498;2022-12-07T04:25:06;3.80;;;1.90;;
41897;SDS011;27576;53.366;-1.498;2022-12-07T04:27:32;8.03;;;1.83;;
41897;SDS011;27576;53.366;-1.498;2022-12-07T04:30:00;3.90;;;2.00;;
41897;SDS011;27576;53.366;-1.498;2022-12-07T04:32:26;4.37;;;2.03;;
41897;SDS011;27576;53.366;-1.498;2022-12-07T04:34:51;4.97;;;1.70;;
41897;SDS011;27576;53.366;-1.498;2022-12-07T04:37:16;6.13;;;1.90;;
41897;SDS011;27576;53.366;-1.498;2022-12-07T04:39:42;4.70;;;2.17;;
41897;SDS011;27576;53.366;-1.498;2022-12-07T04:42:09;3.73;;;1.90;;
41897;SDS011;27576;53.366;-1.498;2022-12-07T04:44:35;3.57;;;2.20;;
41897;SDS011;27576;53.366;-1.498;2022-12-07T04:47:01;6.03;;;2.10;;
41897;SDS011;27576;53.366;-1.498;2022-12-07T04:49:27;5.80;;;2.50;;
41897;SDS011;27576;53.366;-1.498;2022-12-07T04:51:52;2.77;;;2.00;;
41897;SDS011;27576;53.366;-1.498;2022-12-07T04:54:18;2.93;;;2.10;;
41897;SDS011;27576;53.366;-1.498;2022-12-07T04:56:43;6.07;;;2.20;;
41897;SDS011;27576;53.366;-1.498;2022-12-07T04:59:10;3.80;;;1.90;;
41897;SDS011;27576;53.366;-1.498;2022-12-07T05:01:36;5.30;;;2.03;;
41897;SDS011;27576;53.366;-1.498;2022-12-07T05:04:01;4.77;;;1.87;;
41897;SDS011;27576;53.366;-1.498;2022-12-07T05:06:27;3.47;;;1.90;;
41897;SDS011;27576;53.366;-1.498;2022-12-07T05:08:52;4.57;;;2.10;;
41897;SDS011;27576;53.366;-1.498;2022-12-07T05:11:18;3.50;;;1.87;;
41897;SDS011;27576;53.366;-1.498;2022-12-07T05:14:02;4.53;;;1.70;;
41897;SDS011;27576;53.366;-1.498;2022-12-07T05:16:30;5.00;;;2.10;;
41897;SDS011;27576;53.366;-1.498;2022-12-07T05:18:55;6.67;;;2.07;;
41897;SDS011;27576;53.366;-1.498;2022-12-07T05:21:21;5.13;;;1.73;;
41897;SDS011;27576;53.366;-1.498;2022-12-07T05:23:46;4.23;;;1.77;;
41897;SDS011;27576;53.366;-1.498;2022-12-07T05:26:12;3.87;;;1.80;;
41897;SDS011;27576;53.366;-1.498;2022-12-07T05:28:37;4.43;;;1.80;;
41897;SDS011;27576;53.366;-1.498;2022-12-07T05:31:03;12.33;;;1.90;;
41897;SDS011;27576;53.366;-1.498;2022-12-07T05:33:28;4.70;;;1.60;;
41897;SDS011;27576;53.366;-1.498;2022-12-07T05:35:53;3.33;;;1.90;;
41897;SDS011;27576;53.366;-1.498;2022-12-07T05:38:22;3.03;;;1.80;;
41897;SDS011;27576;53.366;-1.498;2022-12-07T05:40:47;5.53;;;2.10;;
41897;SDS011;27576;53.366;-1.498;2022-12-07T05:43:12;7.43;;;1.90;;
41897;SDS011;27576;53.366;-1.498;2022-12-07T05:45:38;5.13;;;2.20;;
41897;SDS011;27576;53.366;-1.498;2022-12-07T05:48:04;3.50;;;1.83;;
41897;SDS011;27576;53.366;-1.498;2022-12-07T05:50:29;5.50;;;1.93;;
41897;SDS011;27576;53.366;-1.498;2022-12-07T05:52:54;4.37;;;1.90;;
41897;SDS011;27576;53.366;-1.498;2022-12-07T05:55:20;3.77;;;2.00;;
41897;SDS011;27576;53.366;-1.498;2022-12-07T05:57:45;3.83;;;1.70;;
41897;SDS011;27576;53.366;-1.498;2022-12-07T06:00:31;3.77;;;1.77;;
41897;SDS011;27576;53.366;-1.498;2022-12-07T06:02:56;3.43;;;1.60;;
41897;SDS011;27576;53.366;-1.498;2022-12-07T06:05:21;3.00;;;1.70;;
41897;SDS011;27576;53.366;-1.498;2022-12-07T06:07:47;2.03;;;1.70;;
41897;SDS011;27576;53.366;-1.498;2022-12-07T06:10:12;6.00;;;2.17;;
41897;SDS011;27576;53.366;-1.498;2022-12-07T06:12:38;4.37;;;1.87;;
41897;SDS011;27576;53.366;-1.498;2022-12-07T06:15:04;2.40;;;1.43;;
41897;SDS011;27576;53.366;-1.498;2022-12-07T06:17:30;7.13;;;2.17;;
41897;SDS011;27576;53.366;-1.498;2022-12-07T06:19:56;4.87;;;2.13;;
41897;SDS011;27576;53.366;-1.498;2022-12-07T06:22:21;9.50;;;1.83;;
41897;SDS011;27576;53.366;-1.498;2022-12-07T06:24:47;5.93;;;2.17;;
41897;SDS011;27576;53.366;-1.498;2022-12-07T06:27:12;4.53;;;1.90;;
41897;SDS011;27576;53.366;-1.498;2022-12-07T06:29:37;5.33;;;1.80;;
41897;SDS011;27576;53.366;-1.498;2022-12-07T06:32:03;7.53;;;2.60;;
41897;SDS011;27576;53.366;-1.498;2022-12-07T06:34:29;5.40;;;2.10;;
41897;SDS011;27576;53.366;-1.498;2022-12-07T06:36:55;5.53;;;2.47;;
41897;SDS011;27576;53.366;-1.498;2022-12-07T06:39:21;4.27;;;2.00;;
41897;SDS011;27576;53.366;-1.498;2022-12-07T06:41:48;6.27;;;2.43;;
41897;SDS011;27576;53.366;-1.498;2022-12-07T06:44:14;3.37;;;1.93;;
41897;SDS011;27576;53.366;-1.498;2022-12-07T06:46:39;3.27;;;1.80;;
41897;SDS011;27576;53.366;-1.498;2022-12-07T06:49:05;10.07;;;3.20;;
41897;SDS011;27576;53.366;-1.498;2022-12-07T06:51:31;5.10;;;2.10;;
41897;SDS011;27576;53.366;-1.498;2022-12-07T06:53:57;5.87;;;2.27;;
41897;SDS011;27576;53.366;-1.498;2022-12-07T06:56:22;7.77;;;3.23;;
41897;SDS011;27576;53.366;-1.498;2022-12-07T06:58:48;5.90;;;2.60;;
41897;SDS011;27576;53.366;-1.498;2022-12-07T07:01:14;4.50;;;2.27;;
41897;SDS011;27576;53.366;-1.498;2022-12-07T07:03:44;3.87;;;2.10;;
41897;SDS011;27576;53.366;-1.498;2022-12-07T07:06:10;8.03;;;2.40;;
41897;SDS011;27576;53.366;-1.498;2022-12-07T07:08:36;5.27;;;2.10;;
41897;SDS011;27576;53.366;-1.498;2022-12-07T07:11:02;7.33;;;2.57;;
41897;SDS011;27576;53.366;-1.498;2022-12-07T07:13:28;4.87;;;1.90;;
41897;SDS011;27576;53.366;-1.498;2022-12-07T07:15:54;5.17;;;2.03;;
41897;SDS011;27576;53.366;-1.498;2022-12-07T07:18:20;6.90;;;2.13;;
41897;SDS011;27576;53.366;-1.498;2022-12-07T07:20:46;6.77;;;2.30;;
41897;SDS011;27576;53.366;-1.498;2022-12-07T07:23:11;5.37;;;1.70;;
41897;SDS011;27576;53.366;-1.498;2022-12-07T07:25:37;3.73;;;2.00;;
41897;SDS011;27576;53.366;-1.498;2022-12-07T07:28:03;2.83;;;1.93;;
41897;SDS011;27576;53.366;-1.498;2022-12-07T07:30:30;6.63;;;2.23;;
41897;SDS011;27576;53.366;-1.498;2022-12-07T07:32:56;5.07;;;1.90;;
41897;SDS011;27576;53.366;-1.498;2022-12-07T07:35:26;4.80;;;2.00;;
41897;SDS011;27576;53.366;-1.498;2022-12-07T07:37:52;5.90;;;2.30;;
41897;SDS011;27576;53.366;-1.498;2022-12-07T07:40:17;6.20;;;1.70;;
41897;SDS011;27576;53.366;-1.498;2022-12-07T07:42:43;5.40;;;2.03;;
41897;SDS011;27576;53.366;-1.498;2022-12-07T07:45:09;2.10;;;1.87;;
41897;SDS011;27576;53.366;-1.498;2022-12-07T07:47:34;6.93;;;1.97;;
41897;SDS011;27576;53.366;-1.498;2022-12-07T07:50:00;3.00;;;1.80;;
41897;SDS011;27576;53.366;-1.498;2022-12-07T07:52:25;6.13;;;2.70;;
41897;SDS011;27576;53.366;-1.498;2022-12-07T07:54:51;3.93;;;1.97;;
41897;SDS011;27576;53.366;-1.498;2022-12-07T07:57:16;4.13;;;2.33;;
41897;SDS011;27576;53.366;-1.498;2022-12-07T07:59:42;3.87;;;1.97;;
41897;SDS011;27576;53.366;-1.498;2022-12-07T08:02:15;7.83;;;2.20;;
41897;SDS011;27576;53.366;-1.498;2022-12-07T08:04:41;4.90;;;1.83;;
41897;SDS011;27576;53.366;-1.498;2022-12-07T08:07:07;6.33;;;2.23;;
41897;SDS011;27576;53.366;-1.498;2022-12-07T08:09:32;2.70;;;1.97;;
41897;SDS011;27576;53.366;-1.498;2022-12-07T08:11:58;5.40;;;2.40;;
41897;SDS011;27576;53.366;-1.498;2022-12-07T08:14:23;4.43;;;2.40;;
41897;SDS011;27576;53.366;-1.498;2022-12-07T08:16:49;4.17;;;2.43;;
41897;SDS011;27576;53.366;-1.498;2022-12-07T08:19:15;9.33;;;2.70;;
41897;SDS011;27576;53.366;-1.498;2022-12-07T08:21:40;4.03;;;2.40;;
41897;SDS011;27576;53.366;-1.498;2022-12-07T08:24:06;7.57;;;2.20;;
41897;SDS011;27576;53.366;-1.498;2022-12-07T08:26:31;7.57;;;2.17;;
41897;SDS011;27576;53.366;-1.498;2022-12-07T08:28:57;5.27;;;2.57;;
41897;SDS011;27576;53.366;-1.498;2022-12-07T08:31:22;4.73;;;2.93;;
41897;SDS011;27576;53.366;-1.498;2022-12-07T08:33:48;5.13;;;3.30;;
41897;SDS011;27576;53.366;-1.498;2022-12-07T08:36:14;4.17;;;3.37;;
41897;SDS011;27576;53.366;-1.498;2022-12-07T08:38:40;5.20;;;3.30;;
41897;SDS011;27576;53.366;-1.498;2022-12-07T08:41:06;10.27;;;3.33;;
41897;SDS011;27576;53.366;-1.498;2022-12-07T08:43:33;13.50;;;3.53;;
41897;SDS011;27576;53.366;-1.498;2022-12-07T08:48:55;5.20;;;2.80;;
41897;SDS011;27576;53.366;-1.498;2022-12-07T08:51:23;6.73;;;2.93;;
41897;SDS011;27576;53.366;-1.498;2022-12-07T08:53:50;6.67;;;3.00;;
41897;SDS011;27576;53.366;-1.498;2022-12-07T08:56:17;3.37;;;2.30;;
41897;SDS011;27576;53.366;-1.498;2022-12-07T08:58:43;6.47;;;2.67;;
41897;SDS011;27576;53.366;-1.498;2022-12-07T09:01:09;3.97;;;2.33;;
41897;SDS011;27576;53.366;-1.498;2022-12-07T09:03:34;7.37;;;2.57;;
41897;SDS011;27576;53.366;-1.498;2022-12-07T09:06:00;3.77;;;2.60;;
41897;SDS011;27576;53.366;-1.498;2022-12-07T09:08:36;4.50;;;2.80;;
41897;SDS011;27576;53.366;-1.498;2022-12-07T09:11:08;5.70;;;2.47;;
41897;SDS011;27576;53.366;-1.498;2022-12-07T09:13:33;8.77;;;3.03;;
41897;SDS011;27576;53.366;-1.498;2022-12-07T09:15:58;4.57;;;2.47;;
41897;SDS011;27576;53.366;-1.498;2022-12-07T09:18:24;6.40;;;3.50;;
41897;SDS011;27576;53.366;-1.498;2022-12-07T09:20:49;4.00;;;2.83;;
41897;SDS011;27576;53.366;-1.498;2022-12-07T09:23:15;5.10;;;2.77;;
41897;SDS011;27576;53.366;-1.498;2022-12-07T09:25:40;5.17;;;3.00;;
41897;SDS011;27576;53.366;-1.498;2022-12-07T09:28:06;5.23;;;3.30;;
41897;SDS011;27576;53.366;-1.498;2022-12-07T09:30:31;6.67;;;3.30;;
41897;SDS011;27576;53.366;-1.498;2022-12-07T09:32:57;5.10;;;3.20;;
41897;SDS011;27576;53.366;-1.498;2022-12-07T09:35:23;6.00;;;3.27;;
41897;SDS011;27576;53.366;-1.498;2022-12-07T09:37:49;5.57;;;2.70;;
41897;SDS011;27576;53.366;-1.498;2022-12-07T09:40:15;5.60;;;2.77;;
41897;SDS011;27576;53.366;-1.498;2022-12-07T09:42:44;6.83;;;2.97;;
41897;SDS011;27576;53.366;-1.498;2022-12-07T09:45:19;4.73;;;2.80;;
41897;SDS011;27576;53.366;-1.498;2022-12-07T09:47:57;7.23;;;4.43;;
41897;SDS011;27576;53.366;-1.498;2022-12-07T09:50:25;6.47;;;4.40;;
41897;SDS011;27576;53.366;-1.498;2022-12-07T09:52:52;8.83;;;5.10;;
41897;SDS011;27576;53.366;-1.498;2022-12-07T09:55:25;11.33;;;4.37;;
41897;SDS011;27576;53.366;-1.498;2022-12-07T09:57:53;8.60;;;3.13;;
41897;SDS011;27576;53.366;-1.498;2022-12-07T10:00:20;5.63;;;2.70;;
41897;SDS011;27576;53.366;-1.498;2022-12-07T10:02:50;8.57;;;2.43;;
41897;SDS011;27576;53.366;-1.498;2022-12-07T10:05:16;6.30;;;2.13;;
41897;SDS011;27576;53.366;-1.498;2022-12-07T10:07:46;4.90;;;2.10;;
41897;SDS011;27576;53.366;-1.498;2022-12-07T10:10:13;5.47;;;2.13;;
41897;SDS011;27576;53.366;-1.498;2022-12-07T10:13:01;10.90;;;2.53;;
41897;SDS011;27576;53.366;-1.498;2022-12-07T10:18:17;4.50;;;2.40;;
41897;SDS011;27576;53.366;-1.498;2022-12-07T10:20:43;4.27;;;2.47;;
41897;SDS011;27576;53.366;-1.498;2022-12-07T10:23:14;5.17;;;2.93;;
41897;SDS011;27576;53.366;-1.498;2022-12-07T10:25:41;10.83;;;2.30;;
41897;SDS011;27576;53.366;-1.498;2022-12-07T10:30:33;4.40;;;1.77;;
41897;SDS011;27576;53.366;-1.498;2022-12-07T10:33:33;8.57;;;2.27;;
41897;SDS011;27576;53.366;-1.498;2022-12-07T10:36:15;4.90;;;2.20;;
41897;SDS011;27576;53.366;-1.498;2022-12-07T10:38:44;6.33;;;1.90;;
41897;SDS011;27576;53.366;-1.498;2022-12-07T10:41:11;4.87;;;2.20;;
41897;SDS011;27576;53.366;-1.498;2022-12-07T10:43:37;9.63;;;2.10;;
41897;SDS011;27576;53.366;-1.498;2022-12-07T11:00:34;6.03;;;2.30;;
41897;SDS011;27576;53.366;-1.498;2022-12-07T11:06:13;6.53;;;2.53;;
41897;SDS011;27576;53.366;-1.498;2022-12-07T11:14:23;3.03;;;1.90;;
41897;SDS011;27576;53.366;-1.498;2022-12-07T11:22:48;6.80;;;2.63;;
41897;SDS011;27576;53.366;-1.498;2022-12-07T11:25:26;5.53;;;2.20;;
41897;SDS011;27576;53.366;-1.498;2022-12-07T11:36:31;5.70;;;2.30;;
41897;SDS011;27576;53.366;-1.498;2022-12-07T11:39:02;6.57;;;2.47;;
41897;SDS011;27576;53.366;-1.498;2022-12-07T11:41:35;4.63;;;2.70;;
41897;SDS011;27576;53.366;-1.498;2022-12-07T11:49:23;4.95;;;2.08;;
41897;SDS011;27576;53.366;-1.498;2022-12-07T11:52:06;8.35;;;2.40;;
41897;SDS011;27576;53.366;-1.498;2022-12-07T11:54:46;5.83;;;2.17;;
41897;SDS011;27576;53.366;-1.498;2022-12-07T11:57:18;3.08;;;1.92;;
41897;SDS011;27576;53.366;-1.498;2022-12-07T11:59:51;2.47;;;1.67;;
41897;SDS011;27576;53.366;-1.498;2022-12-07T12:03:08;4.30;;;1.83;;
41897;SDS011;27576;53.366;-1.498;2022-12-07T12:05:20;6.55;;;2.45;;
41897;SDS011;27576;53.366;-1.498;2022-12-07T12:07:49;3.80;;;1.80;;
41897;SDS011;27576;53.366;-1.498;2022-12-07T12:10:36;6.95;;;1.98;;
41897;SDS011;27576;53.366;-1.498;2022-12-07T12:13:23;5.38;;;2.38;;
41897;SDS011;27576;53.366;-1.498;2022-12-07T12:18:43;4.47;;;1.65;;
41897;SDS011;27576;53.366;-1.498;2022-12-07T12:21:14;4.30;;;1.75;;
41897;SDS011;27576;53.366;-1.498;2022-12-07T12:23:56;3.42;;;1.73;;
41897;SDS011;27576;53.366;-1.498;2022-12-07T12:26:29;4.60;;;1.95;;
41897;SDS011;27576;53.366;-1.498;2022-12-07T12:33:53;3.83;;;1.52;;
41897;SDS011;27576;53.366;-1.498;2022-12-07T12:39:14;3.20;;;1.80;;
41897;SDS011;27576;53.366;-1.498;2022-12-07T12:46:57;3.10;;;1.75;;
41897;SDS011;27576;53.366;-1.498;2022-12-07T12:57:34;8.02;;;1.60;;
41897;SDS011;27576;53.366;-1.498;2022-12-07T13:00:15;3.30;;;1.63;;
41897;SDS011;27576;53.366;-1.498;2022-12-07T13:02:52;3.42;;;1.27;;
41897;SDS011;27576;53.366;-1.498;2022-12-07T13:05:24;5.00;;;1.20;;
41897;SDS011;27576;53.366;-1.498;2022-12-07T13:18:36;5.57;;;1.50;;
41897;SDS011;27576;53.366;-1.498;2022-12-07T13:21:39;2.90;;;1.40;;
41897;SDS011;27576;53.366;-1.498;2022-12-07T13:23:57;5.97;;;1.80;;
41897;SDS011;27576;53.366;-1.498;2022-12-07T13:26:36;5.97;;;1.50;;
41897;SDS011;27576;53.366;-1.498;2022-12-07T13:31:38;3.58;;;1.50;;
41897;SDS011;27576;53.366;-1.498;2022-12-07T13:34:27;6.78;;;1.60;;
41897;SDS011;27576;53.366;-1.498;2022-12-07T13:36:56;4.57;;;1.60;;
41897;SDS011;27576;53.366;-1.498;2022-12-07T13:39:24;2.70;;;1.40;;
41897;SDS011;27576;53.366;-1.498;2022-12-07T13:42:06;5.95;;;1.60;;
41897;SDS011;27576;53.366;-1.498;2022-12-07T13:44:40;3.45;;;1.77;;
41897;SDS011;27576;53.366;-1.498;2022-12-07T13:47:09;4.53;;;2.20;;
41897;SDS011;27576;53.366;-1.498;2022-12-07T13:49:49;3.90;;;1.83;;
41897;SDS011;27576;53.366;-1.498;2022-12-07T13:52:18;5.00;;;1.92;;
41897;SDS011;27576;53.366;-1.498;2022-12-07T13:57:31;6.40;;;2.28;;
41897;SDS011;27576;53.366;-1.498;2022-12-07T14:00:00;3.78;;;2.47;;
41897;SDS011;27576;53.366;-1.498;2022-12-07T14:02:53;4.95;;;1.88;;
41897;SDS011;27576;53.366;-1.498;2022-12-07T14:05:29;4.93;;;2.40;;
41897;SDS011;27576;53.366;-1.498;2022-12-07T14:08:21;5.20;;;2.60;;
41897;SDS011;27576;53.366;-1.498;2022-12-07T14:16:01;6.50;;;2.50;;
41897;SDS011;27576;53.366;-1.498;2022-12-07T14:18:36;6.22;;;2.08;;
41897;SDS011;27576;53.366;-1.498;2022-12-07T14:21:25;3.60;;;2.20;;
41897;SDS011;27576;53.366;-1.498;2022-12-07T14:26:43;8.40;;;3.33;;
41897;SDS011;27576;53.366;-1.498;2022-12-07T14:29:18;4.20;;;2.83;;
41897;SDS011;27576;53.366;-1.498;2022-12-07T14:31:51;6.60;;;3.08;;
41897;SDS011;27576;53.366;-1.498;2022-12-07T14:34:19;6.07;;;3.85;;
41897;SDS011;27576;53.366;-1.498;2022-12-07T14:36:45;8.65;;;4.25;;
41897;SDS011;27576;53.366;-1.498;2022-12-07T14:39:10;8.98;;;4.20;;
41897;SDS011;27576;53.366;-1.498;2022-12-07T14:41:36;10.82;;;4.82;;
41897;SDS011;27576;53.366;-1.498;2022-12-07T14:44:16;7.47;;;4.45;;
41897;SDS011;27576;53.366;-1.498;2022-12-07T14:46:44;11.07;;;4.70;;
41897;SDS011;27576;53.366;-1.498;2022-12-07T14:49:09;8.70;;;4.70;;
41897;SDS011;27576;53.366;-1.498;2022-12-07T14:51:36;9.40;;;5.53;;
41897;SDS011;27576;53.366;-1.498;2022-12-07T14:54:04;12.38;;;6.50;;
41897;SDS011;27576;53.366;-1.498;2022-12-07T14:56:31;10.05;;;6.78;;
41897;SDS011;27576;53.366;-1.498;2022-12-07T14:58:56;8.93;;;7.30;;
41897;SDS011;27576;53.366;-1.498;2022-12-07T15:01:23;11.60;;;7.55;;
41897;SDS011;27576;53.366;-1.498;2022-12-07T15:03:48;13.15;;;7.55;;
41897;SDS011;27576;53.366;-1.498;2022-12-07T15:06:15;10.85;;;8.30;;
41897;SDS011;27576;53.366;-1.498;2022-12-07T15:08:42;16.70;;;9.65;;
41897;SDS011;27576;53.366;-1.498;2022-12-07T15:11:18;13.15;;;8.90;;
41897;SDS011;27576;53.366;-1.498;2022-12-07T15:13:44;10.85;;;7.75;;
41897;SDS011;27576;53.366;-1.498;2022-12-07T15:16:28;16.60;;;8.40;;
41897;SDS011;27576;53.366;-1.498;2022-12-07T15:18:53;12.57;;;8.18;;
41897;SDS011;27576;53.366;-1.498;2022-12-07T15:21:19;16.58;;;9.27;;
41897;SDS011;27576;53.366;-1.498;2022-12-07T15:23:46;11.63;;;8.35;;
41897;SDS011;27576;53.366;-1.498;2022-12-07T15:26:12;11.73;;;7.93;;
41897;SDS011;27576;53.366;-1.498;2022-12-07T15:28:38;10.18;;;7.07;;
41897;SDS011;27576;53.366;-1.498;2022-12-07T15:31:04;11.73;;;7.07;;
41897;SDS011;27576;53.366;-1.498;2022-12-07T15:33:35;8.73;;;6.55;;
41897;SDS011;27576;53.366;-1.498;2022-12-07T15:36:00;12.20;;;7.50;;
41897;SDS011;27576;53.366;-1.498;2022-12-07T15:38:25;17.70;;;7.65;;
41897;SDS011;27576;53.366;-1.498;2022-12-07T15:40:53;10.77;;;7.13;;
41897;SDS011;27576;53.366;-1.498;2022-12-07T15:43:18;12.45;;;7.00;;
41897;SDS011;27576;53.366;-1.498;2022-12-07T15:46:02;9.98;;;7.20;;
41897;SDS011;27576;53.366;-1.498;2022-12-07T15:48:28;11.32;;;7.43;;
41897;SDS011;27576;53.366;-1.498;2022-12-07T15:50:53;11.13;;;7.30;;
41897;SDS011;27576;53.366;-1.498;2022-12-07T15:53:25;11.52;;;7.82;;
41897;SDS011;27576;53.366;-1.498;2022-12-07T15:55:51;14.40;;;9.23;;
41897;SDS011;27576;53.366;-1.498;2022-12-07T15:58:16;12.40;;;8.07;;
41897;SDS011;27576;53.366;-1.498;2022-12-07T16:00:41;15.20;;;8.27;;
41897;SDS011;27576;53.366;-1.498;2022-12-07T16:03:07;11.10;;;7.80;;
41897;SDS011;27576;53.366;-1.498;2022-12-07T16:05:32;12.38;;;7.85;;
41897;SDS011;27576;53.366;-1.498;2022-12-07T16:07:58;12.13;;;7.37;;
41897;SDS011;27576;53.366;-1.498;2022-12-07T16:10:23;12.47;;;8.30;;
41897;SDS011;27576;53.366;-1.498;2022-12-07T16:12:49;13.57;;;7.80;;
41897;SDS011;27576;53.366;-1.498;2022-12-07T16:15:14;14.98;;;8.63;;
41897;SDS011;27576;53.366;-1.498;2022-12-07T16:17:40;12.03;;;9.50;;
41897;SDS011;27576;53.366;-1.498;2022-12-07T16:20:05;18.50;;;10.77;;
41897;SDS011;27576;53.366;-1.498;2022-12-07T16:22:31;17.17;;;10.10;;
41897;SDS011;27576;53.366;-1.498;2022-12-07T16:24:56;18.90;;;9.98;;
41897;SDS011;27576;53.366;-1.498;2022-12-07T16:27:22;18.58;;;11.15;;
41897;SDS011;27576;53.366;-1.498;2022-12-07T16:29:47;16.50;;;10.45;;
41897;SDS011;27576;53.366;-1.498;2022-12-07T16:32:12;17.88;;;10.90;;
41897;SDS011;27576;53.366;-1.498;2022-12-07T16:34:39;14.23;;;9.20;;
41897;SDS011;27576;53.366;-1.498;2022-12-07T16:37:04;15.60;;;8.23;;
41897;SDS011;27576;53.366;-1.498;2022-12-07T16:39:30;18.25;;;8.15;;
41897;SDS011;27576;53.366;-1.498;2022-12-07T16:41:55;13.40;;;7.10;;
41897;SDS011;27576;53.366;-1.498;2022-12-07T16:44:20;15.10;;;8.00;;
41897;SDS011;27576;53.366;-1.498;2022-12-07T16:46:46;15.30;;;7.68;;
41897;SDS011;27576;53.366;-1.498;2022-12-07T16:49:14;13.73;;;5.93;;